createdAt,value
2018-04-26T00:01:15.187Z,17.10
2018-04-26T00:03:41.669Z,9.60
2018-04-26T00:06:08.889Z,14.53
2018-04-26T00:08:35.369Z,13.53
2018-04-26T00:11:01.882Z,14.37
2018-04-26T00:13:29.284Z,12.50
2018-04-26T00:15:55.771Z,14.50
2018-04-26T00:18:22.286Z,12.30
2018-04-26T00:20:48.747Z,14.83
2018-04-26T00:23:16.079Z,13.97
2018-04-26T00:25:42.538Z,10.97
2018-04-26T00:28:09.105Z,10.27
2018-04-26T00:30:35.575Z,10.67
2018-04-26T00:33:02.040Z,14.37
2018-04-26T00:35:28.620Z,13.13
2018-04-26T00:37:55.186Z,22.10
2018-04-26T00:40:21.727Z,13.70
2018-04-26T00:42:48.202Z,14.70
2018-04-26T00:45:14.685Z,13.57
2018-04-26T00:47:41.184Z,11.77
2018-04-26T00:50:07.705Z,12.80
2018-04-26T00:52:34.896Z,11.40
2018-04-26T00:55:01.446Z,13.13
2018-04-26T00:57:28.701Z,15.20
2018-04-26T00:59:55.204Z,13.30
2018-04-26T01:02:21.703Z,11.97
2018-04-26T01:04:48.228Z,15.87
2018-04-26T01:07:14.669Z,16.63
2018-04-26T01:09:41.170Z,15.07
2018-04-26T01:12:07.628Z,14.37
2018-04-26T01:14:34.106Z,12.83
2018-04-26T01:17:00.590Z,11.60
2018-04-26T01:19:27.047Z,14.37
2018-04-26T01:21:54.277Z,16.57
2018-04-26T01:24:20.802Z,14.90
2018-04-26T01:26:47.323Z,16.53
2018-04-26T01:29:14.512Z,18.93
2018-04-26T01:31:41.025Z,17.43
2018-04-26T01:34:07.701Z,13.43
2018-04-26T01:36:47.073Z,15.00
2018-04-26T01:39:13.574Z,11.97
2018-04-26T01:41:40.122Z,11.83
2018-04-26T01:44:07.380Z,15.30
2018-04-26T01:46:33.851Z,11.77
2018-04-26T01:49:00.323Z,11.60
2018-04-26T01:51:27.719Z,5.87
2018-04-26T01:53:54.863Z,4.27
2018-04-26T01:56:21.411Z,3.03
2018-04-26T02:01:40.955Z,8.03
2018-04-26T02:04:08.169Z,7.93
2018-04-26T02:06:35.561Z,7.83
2018-04-26T02:09:02.196Z,7.67
2018-04-26T02:11:30.152Z,6.10
2018-04-26T02:13:56.711Z,5.90
2018-04-26T02:16:23.991Z,3.47
2018-04-26T02:18:50.549Z,6.13
2018-04-26T02:21:17.647Z,7.57
2018-04-26T02:23:44.937Z,7.93
2018-04-26T02:26:11.467Z,7.33
2018-04-26T02:28:37.993Z,6.67
2018-04-26T02:31:05.202Z,7.47
2018-04-26T02:33:31.709Z,8.87
2018-04-26T02:35:58.245Z,9.63
2018-04-26T02:38:24.777Z,6.57
2018-04-26T02:40:51.339Z,8.57
2018-04-26T02:43:17.877Z,10.87
2018-04-26T02:45:44.442Z,7.63
2018-04-26T02:48:11.732Z,10.73
2018-04-26T02:50:38.232Z,8.37
2018-04-26T02:53:05.139Z,9.07
2018-04-26T02:55:31.663Z,13.73
2018-04-26T02:57:58.161Z,13.13
2018-04-26T03:00:24.608Z,16.50
2018-04-26T03:02:51.103Z,14.40
2018-04-26T03:05:17.597Z,13.27
2018-04-26T03:07:45.034Z,13.50
2018-04-26T03:10:11.506Z,15.27
2018-04-26T03:12:38.836Z,17.00
2018-04-26T03:15:05.336Z,15.10
2018-04-26T03:17:32.622Z,15.27
2018-04-26T03:19:59.162Z,15.37
2018-04-26T03:32:10.663Z,16.30
2018-04-26T03:34:37.120Z,11.83
2018-04-26T03:37:04.353Z,20.00
2018-04-26T03:39:30.834Z,20.23
2018-04-26T03:41:57.319Z,15.33
2018-04-26T03:44:25.348Z,18.03
2018-04-26T03:46:51.894Z,16.67
2018-04-26T03:49:18.431Z,14.47
2018-04-26T03:51:46.182Z,17.67
2018-04-26T03:54:13.581Z,21.20
2018-04-26T03:56:40.090Z,16.13
2018-04-26T03:59:06.610Z,16.77
2018-04-26T04:01:45.152Z,17.57
2018-04-26T04:04:23.830Z,22.47
2018-04-26T04:06:50.375Z,16.40
2018-04-26T04:09:17.150Z,15.40
2018-04-26T04:11:43.635Z,18.57
2018-04-26T04:14:10.113Z,15.57
2018-04-26T04:16:37.458Z,12.57
2018-04-26T04:19:03.943Z,20.27
2018-04-26T04:21:31.147Z,14.93
2018-04-26T04:23:57.645Z,17.43
2018-04-26T04:26:24.099Z,14.00
2018-04-26T04:28:50.666Z,17.73
2018-04-26T04:31:17.159Z,16.80
2018-04-26T04:33:43.654Z,14.67
2018-04-26T04:36:10.214Z,16.97
2018-04-26T04:38:37.437Z,19.47
2018-04-26T04:41:03.994Z,14.83
2018-04-26T04:43:30.826Z,16.37
2018-04-26T04:45:57.290Z,16.93
2018-04-26T04:48:23.760Z,17.07
2018-04-26T04:50:50.233Z,16.67
2018-04-26T04:53:16.721Z,14.80
2018-04-26T04:55:43.184Z,21.30
2018-04-26T04:58:09.616Z,14.40
2018-04-26T05:00:36.082Z,12.90
2018-04-26T05:03:03.277Z,14.40
2018-04-26T05:05:29.756Z,15.93
2018-04-26T05:07:56.215Z,11.33
2018-04-26T05:10:22.773Z,16.67
2018-04-26T05:12:49.291Z,14.87
2018-04-26T05:15:16.167Z,13.90
2018-04-26T05:17:43.504Z,21.10
2018-04-26T05:20:10.260Z,12.87
2018-04-26T05:22:36.755Z,17.20
2018-04-26T05:25:04.036Z,18.53
2018-04-26T05:27:31.019Z,15.40
2018-04-26T05:29:57.503Z,16.33
2018-04-26T05:32:24.662Z,16.90
2018-04-26T05:34:51.094Z,14.73
2018-04-26T05:37:17.527Z,16.23
2018-04-26T05:39:43.967Z,12.17
2018-04-26T05:42:10.433Z,13.13
2018-04-26T05:44:36.864Z,18.07
2018-04-26T05:47:03.278Z,14.77
2018-04-26T05:49:29.721Z,13.10
2018-04-26T05:51:56.149Z,11.27
2018-04-26T05:54:22.634Z,20.47
2018-04-26T05:56:49.836Z,16.00
2018-04-26T05:59:16.241Z,14.77
2018-04-26T06:01:42.653Z,13.50
2018-04-26T06:04:09.809Z,18.47
2018-04-26T06:06:36.983Z,15.73
2018-04-26T06:09:03.471Z,14.63
2018-04-26T06:11:29.902Z,13.63
2018-04-26T06:13:56.380Z,20.27
2018-04-26T06:16:22.822Z,17.07
2018-04-26T06:18:49.271Z,14.27
2018-04-26T06:21:15.707Z,15.47
2018-04-26T06:23:42.154Z,15.70
2018-04-26T06:26:08.586Z,12.60
2018-04-26T06:28:36.141Z,12.50
2018-04-26T06:31:02.716Z,17.03
2018-04-26T06:33:29.546Z,17.67
2018-04-26T06:35:56.002Z,16.63
2018-04-26T06:38:22.452Z,16.23
2018-04-26T06:40:48.928Z,14.30
2018-04-26T06:43:15.377Z,12.90
2018-04-26T06:45:41.823Z,21.77
2018-04-26T06:48:08.254Z,17.03
2018-04-26T06:50:34.709Z,16.47
2018-04-26T06:53:01.198Z,15.13
2018-04-26T06:55:27.609Z,18.20
2018-04-26T06:57:54.046Z,12.50
2018-04-26T07:00:20.544Z,13.97
2018-04-26T07:02:46.992Z,11.30
2018-04-26T07:05:13.422Z,12.43
2018-04-26T07:07:40.609Z,13.10
2018-04-26T07:10:07.037Z,15.40
2018-04-26T07:12:33.472Z,17.00
2018-04-26T07:14:59.903Z,13.50
2018-04-26T07:17:26.439Z,15.73
2018-04-26T07:19:52.874Z,18.70
2018-04-26T07:22:19.347Z,11.37
2018-04-26T07:24:45.772Z,15.00
2018-04-26T07:27:12.203Z,16.90
2018-04-26T07:29:38.634Z,12.23
2018-04-26T07:32:05.084Z,15.43
2018-04-26T07:34:31.523Z,13.67
2018-04-26T07:36:57.967Z,17.33
2018-04-26T07:39:24.490Z,20.20
2018-04-26T07:41:50.935Z,13.00
2018-04-26T07:44:18.100Z,13.13
2018-04-26T07:46:45.283Z,13.07
2018-04-26T07:49:11.748Z,17.67
2018-04-26T07:51:38.174Z,13.20
2018-04-26T07:54:04.604Z,12.27
2018-04-26T07:56:31.043Z,14.33
2018-04-26T07:58:57.488Z,12.77
2018-04-26T08:01:24.014Z,11.90
2018-04-26T08:03:51.129Z,10.90
2018-04-26T08:06:17.563Z,9.87
2018-04-26T08:08:43.985Z,11.30
2018-04-26T08:11:10.432Z,9.30
2018-04-26T08:13:36.904Z,14.80
2018-04-26T08:16:03.330Z,11.00
2018-04-26T08:18:29.766Z,7.67
2018-04-26T08:20:56.230Z,14.00
2018-04-26T08:23:23.431Z,8.57
2018-04-26T08:25:49.874Z,12.90
2018-04-26T08:28:16.317Z,10.53
2018-04-26T08:30:42.827Z,9.27
2018-04-26T08:33:09.366Z,10.07
2018-04-26T08:35:36.974Z,9.27
2018-04-26T08:38:03.549Z,9.40
2018-04-26T08:40:30.102Z,9.77
2018-04-26T08:42:56.636Z,9.60
2018-04-26T08:45:23.126Z,11.50
2018-04-26T08:47:49.662Z,8.67
2018-04-26T08:50:16.888Z,9.33
2018-04-26T08:52:43.389Z,10.50
2018-04-26T08:55:09.899Z,10.80
2018-04-26T08:57:36.442Z,11.20
2018-04-26T09:00:03.024Z,10.80
2018-04-26T09:02:29.601Z,10.10
2018-04-26T09:04:57.173Z,8.70
2018-04-26T09:07:23.777Z,6.70
2018-04-26T09:09:51.067Z,9.17
2018-04-26T09:12:17.508Z,7.97
2018-04-26T09:14:43.965Z,10.03
2018-04-26T09:17:10.506Z,6.07
2018-04-26T09:19:36.943Z,7.80
2018-04-26T09:22:03.411Z,15.53
2018-04-26T09:24:30.604Z,10.43
2018-04-26T09:26:57.060Z,8.13
2018-04-26T09:29:24.234Z,7.80
2018-04-26T09:31:50.685Z,6.00
2018-04-26T09:34:17.122Z,9.90
2018-04-26T09:36:43.570Z,6.57
2018-04-26T09:39:10.024Z,11.30
2018-04-26T09:41:36.571Z,5.07
2018-04-26T09:44:03.700Z,7.57
2018-04-26T09:46:30.145Z,4.93
2018-04-26T09:48:56.576Z,8.60
2018-04-26T09:51:23.003Z,6.87
2018-04-26T09:53:49.448Z,7.40
2018-04-26T09:56:15.877Z,9.67
2018-04-26T09:58:42.321Z,6.87
2018-04-26T10:01:08.798Z,8.90
2018-04-26T10:03:37.786Z,6.57
2018-04-26T10:06:04.321Z,6.13
2018-04-26T10:08:30.760Z,7.27
2018-04-26T10:10:57.980Z,11.33
2018-04-26T10:13:24.500Z,9.10
2018-04-26T10:15:51.046Z,8.80
2018-04-26T10:18:17.559Z,6.33
2018-04-26T10:20:44.080Z,4.83
2018-04-26T10:23:10.572Z,7.63
2018-04-26T10:25:36.998Z,5.43
2018-04-26T10:28:03.446Z,11.03
2018-04-26T10:30:29.923Z,6.43
2018-04-26T10:32:56.337Z,5.77
2018-04-26T10:35:23.568Z,5.27
2018-04-26T10:37:49.986Z,6.53
2018-04-26T10:40:16.424Z,6.67
2018-04-26T10:42:42.854Z,10.60
2018-04-26T10:45:09.328Z,7.47
2018-04-26T10:47:36.511Z,6.50
2018-04-26T10:50:02.978Z,5.33
2018-04-26T10:52:29.406Z,6.30
2018-04-26T10:54:55.834Z,6.70
2018-04-26T10:57:22.308Z,6.40
2018-04-26T10:59:49.519Z,9.50
2018-04-26T11:02:15.958Z,7.23
2018-04-26T11:04:42.404Z,7.07
2018-04-26T11:07:08.830Z,7.77
2018-04-26T11:09:35.265Z,4.37
2018-04-26T11:12:01.725Z,4.83
2018-04-26T11:14:28.870Z,7.00
2018-04-26T11:16:55.293Z,8.70
2018-04-26T11:19:21.742Z,9.90
2018-04-26T11:21:48.941Z,6.93
2018-04-26T11:24:15.373Z,8.70
2018-04-26T11:26:41.798Z,7.53
2018-04-26T11:29:08.264Z,9.90
2018-04-26T11:31:34.741Z,10.33
2018-04-26T11:34:01.935Z,7.07
2018-04-26T11:36:28.385Z,7.07
2018-04-26T11:38:54.965Z,9.57
2018-04-26T11:41:22.188Z,7.13
2018-04-26T11:43:49.967Z,8.40
2018-04-26T11:46:16.505Z,6.80
2018-04-26T11:48:43.906Z,8.03
2018-04-26T11:51:10.497Z,11.87
2018-04-26T11:53:37.004Z,9.83
2018-04-26T11:56:03.601Z,6.37
2018-04-26T11:58:31.016Z,7.93
2018-04-26T12:00:57.680Z,7.50
2018-04-26T12:03:24.217Z,8.30
2018-04-26T12:05:50.753Z,9.30
2018-04-26T12:08:17.238Z,7.40
2018-04-26T12:10:43.761Z,10.37
2018-04-26T12:13:11.223Z,6.93
2018-04-26T12:15:37.726Z,4.57
2018-04-26T12:18:04.206Z,8.43
2018-04-26T12:20:31.705Z,16.03
2018-04-26T12:22:58.946Z,5.80
2018-04-26T12:25:26.931Z,5.93
2018-04-26T12:27:53.425Z,7.67
2018-04-26T12:30:19.965Z,6.90
2018-04-26T12:32:47.446Z,8.20
2018-04-26T12:35:14.060Z,7.20
2018-04-26T12:37:41.669Z,7.30
2018-04-26T12:40:08.919Z,5.20
2018-04-26T12:42:35.401Z,5.87
2018-04-26T12:45:01.984Z,5.10
2018-04-26T12:47:28.540Z,4.13
2018-04-26T12:49:54.984Z,9.57
2018-04-26T12:52:21.408Z,6.03
2018-04-26T12:54:47.890Z,5.23
2018-04-26T12:57:14.382Z,5.87
2018-04-26T12:59:40.796Z,5.83
2018-04-26T13:02:08.032Z,7.43
2018-04-26T13:04:35.216Z,7.37
2018-04-26T13:07:01.644Z,6.50
2018-04-26T13:09:28.080Z,6.83
2018-04-26T13:11:54.512Z,8.13
2018-04-26T13:14:20.940Z,8.43
2018-04-26T13:16:47.382Z,6.87
2018-04-26T13:19:13.869Z,8.33
2018-04-26T13:21:41.066Z,7.33
2018-04-26T13:24:07.522Z,7.20
2018-04-26T13:26:33.953Z,4.90
2018-04-26T13:29:00.393Z,5.03
2018-04-26T13:31:26.853Z,7.27
2018-04-26T13:33:53.279Z,7.33
2018-04-26T13:36:19.726Z,5.97
2018-04-26T13:38:46.914Z,7.07
2018-04-26T13:41:14.086Z,6.70
2018-04-26T13:43:40.537Z,6.83
2018-04-26T13:46:06.979Z,9.10
2018-04-26T13:48:33.449Z,7.13
2018-04-26T13:51:05.289Z,5.70
2018-04-26T13:53:31.881Z,8.30
2018-04-26T13:55:59.314Z,9.00
2018-04-26T13:58:25.770Z,11.53
2018-04-26T14:00:52.229Z,7.27
2018-04-26T14:03:18.678Z,4.63
2018-04-26T14:05:45.115Z,7.50
2018-04-26T14:08:13.063Z,6.20
2018-04-26T14:10:39.496Z,9.03
2018-04-26T14:13:05.945Z,6.87
2018-04-26T14:15:32.389Z,6.93
2018-04-26T14:17:58.832Z,5.63
2018-04-26T14:20:26.040Z,4.87
2018-04-26T14:22:52.489Z,9.60
2018-04-26T14:25:18.967Z,11.27
2018-04-26T14:27:46.151Z,5.73
2018-04-26T14:30:12.595Z,3.47
2018-04-26T14:32:39.068Z,8.43
2018-04-26T14:35:06.336Z,6.20
2018-04-26T14:37:33.608Z,6.37
2018-04-26T14:39:59.997Z,8.80
2018-04-26T14:42:26.432Z,6.77
2018-04-26T14:44:52.907Z,8.10
2018-04-26T14:47:19.656Z,6.37
2018-04-26T14:49:46.273Z,7.47
2018-04-26T14:52:12.673Z,5.50
2018-04-26T14:54:39.120Z,3.57
2018-04-26T14:57:05.612Z,9.00
2018-04-26T14:59:32.084Z,6.97
2018-04-26T15:01:58.526Z,3.77
2018-04-26T15:04:25.694Z,4.90
2018-04-26T15:06:52.204Z,4.90
2018-04-26T15:09:19.395Z,5.13
2018-04-26T15:11:45.893Z,7.00
2018-04-26T15:14:13.815Z,6.53
2018-04-26T15:16:40.264Z,5.43
2018-04-26T15:19:06.717Z,4.90
2018-04-26T15:21:33.158Z,4.03
2018-04-26T15:23:59.600Z,6.23
2018-04-26T15:26:26.034Z,4.07
2018-04-26T15:28:52.751Z,6.77
2018-04-26T15:31:19.179Z,4.93
2018-04-26T15:33:45.646Z,7.37
2018-04-26T15:36:12.836Z,8.10
2018-04-26T15:38:39.370Z,6.00
2018-04-26T15:41:05.822Z,5.47
2018-04-26T15:43:32.266Z,8.97
2018-04-26T15:45:58.718Z,4.43
2018-04-26T15:48:25.174Z,8.50
2018-04-26T15:50:52.410Z,23.37
2018-04-26T15:53:30.938Z,2.90
2018-04-26T15:56:10.318Z,3.93
2018-04-26T16:01:49.974Z,9.47
2018-04-26T16:04:28.585Z,4.80
2018-04-26T16:07:07.227Z,5.27
2018-04-26T16:09:38.562Z,6.00
2018-04-26T16:12:11.164Z,6.30
2018-04-26T16:14:49.833Z,4.67
2018-04-26T16:17:36.267Z,4.60
2018-04-26T16:20:17.910Z,5.47
2018-04-26T16:23:02.583Z,4.83
2018-04-26T16:25:42.053Z,7.63
2018-04-26T16:28:26.742Z,4.37
2018-04-26T16:31:11.463Z,3.33
2018-04-26T16:33:50.015Z,6.30
2018-04-26T16:36:28.687Z,7.47
2018-04-26T16:39:16.581Z,4.37
2018-04-26T16:41:43.041Z,4.93
2018-04-26T16:44:09.477Z,6.80
2018-04-26T16:46:35.919Z,6.87
2018-04-26T16:49:02.422Z,4.40
2018-04-26T16:51:28.859Z,6.93
2018-04-26T16:53:55.306Z,5.17
2018-04-26T16:56:21.784Z,4.33
2018-04-26T16:58:48.216Z,5.90
2018-04-26T17:01:14.691Z,4.67
2018-04-26T17:03:41.127Z,8.03
2018-04-26T17:06:07.602Z,4.93
2018-04-26T17:08:35.016Z,5.77
2018-04-26T17:11:01.481Z,5.30
2018-04-26T17:13:28.721Z,7.93
2018-04-26T17:15:55.151Z,6.60
2018-04-26T17:18:21.581Z,10.30
2018-04-26T17:20:48.025Z,5.93
2018-04-26T17:23:14.491Z,3.93
2018-04-26T17:25:41.672Z,6.90
2018-04-26T17:28:08.215Z,6.93
2018-04-26T17:30:34.612Z,4.00
2018-04-26T17:33:01.800Z,5.80
2018-04-26T17:35:28.243Z,8.53
2018-04-26T17:37:54.709Z,6.43
2018-04-26T17:40:21.148Z,7.40
2018-04-26T17:42:47.631Z,5.63
2018-04-26T17:45:14.917Z,4.23
2018-04-26T17:47:41.375Z,3.73
2018-04-26T17:50:08.565Z,4.27
2018-04-26T17:52:35.009Z,5.93
2018-04-26T17:55:01.458Z,5.10
2018-04-26T17:57:27.916Z,5.43
2018-04-26T17:59:55.100Z,9.53
2018-04-26T18:02:21.556Z,6.70
2018-04-26T18:04:48.032Z,13.47
2018-04-26T18:07:14.466Z,5.13
2018-04-26T18:09:41.030Z,4.13
2018-04-26T18:12:07.577Z,6.03
2018-04-26T18:14:34.196Z,4.83
2018-04-26T18:17:01.553Z,4.77
2018-04-26T18:19:29.708Z,5.93
2018-04-26T18:21:56.294Z,5.80
2018-04-26T18:24:23.192Z,5.43
2018-04-26T18:26:50.517Z,5.40
2018-04-26T18:29:17.810Z,4.00
2018-04-26T18:31:45.592Z,5.80
2018-04-26T18:34:12.257Z,7.83
2018-04-26T18:36:38.937Z,8.53
2018-04-26T18:39:05.610Z,5.70
2018-04-26T18:41:33.348Z,4.50
2018-04-26T18:44:00.579Z,6.17
2018-04-26T18:46:27.043Z,4.00
2018-04-26T18:48:54.319Z,5.90
2018-04-26T18:51:20.927Z,5.27
2018-04-26T18:53:48.389Z,4.93
2018-04-26T18:56:14.944Z,3.63
2018-04-26T18:58:42.416Z,6.07
2018-04-26T19:01:09.027Z,4.30
2018-04-26T19:03:35.545Z,3.70
2018-04-26T19:06:02.137Z,8.77
2018-04-26T19:08:28.765Z,5.80
2018-04-26T19:10:55.308Z,8.97
2018-04-26T19:13:21.910Z,9.83
2018-04-26T19:15:49.300Z,6.73
2018-04-26T19:18:16.171Z,5.53
2018-04-26T19:20:42.734Z,5.30
2018-04-26T19:23:09.243Z,5.13
2018-04-26T19:25:35.898Z,4.33
2018-04-26T19:28:02.428Z,5.47
2018-04-26T19:30:29.021Z,5.50
2018-04-26T19:32:55.638Z,5.83
2018-04-26T19:35:22.970Z,3.90
2018-04-26T19:37:50.324Z,5.63
2018-04-26T19:40:16.857Z,5.20
2018-04-26T19:42:43.453Z,4.07
2018-04-26T19:45:10.017Z,5.20
2018-04-26T19:47:36.552Z,6.10
2018-04-26T19:50:03.136Z,5.57
2018-04-26T19:52:30.599Z,4.23
2018-04-26T19:54:57.875Z,7.23
2018-04-26T19:57:24.505Z,7.57
2018-04-26T20:09:36.035Z,4.00
2018-04-26T20:12:03.425Z,9.27
2018-04-26T20:14:30.227Z,5.97
2018-04-26T20:16:56.758Z,6.47
2018-04-26T20:19:23.333Z,7.37
2018-04-26T20:21:49.914Z,8.17
2018-04-26T20:24:17.316Z,6.67
2018-04-26T20:26:44.948Z,6.63
2018-04-26T20:29:11.483Z,9.57
2018-04-26T20:31:38.730Z,7.23
2018-04-26T20:34:05.405Z,7.60
2018-04-26T20:36:32.085Z,5.93
2018-04-26T20:38:58.715Z,7.77
2018-04-26T20:41:25.570Z,8.03
2018-04-26T20:43:52.391Z,5.73
2018-04-26T20:46:19.097Z,8.50
2018-04-26T20:48:46.514Z,6.50
2018-04-26T20:51:13.175Z,5.47
2018-04-26T20:53:40.577Z,4.97
2018-04-26T20:56:07.955Z,6.00
2018-04-26T20:58:34.595Z,8.77
2018-04-26T21:01:01.251Z,5.90
2018-04-26T21:03:27.808Z,8.73
2018-04-26T21:05:55.209Z,8.37
2018-04-26T21:08:21.823Z,6.40
2018-04-26T21:10:49.112Z,5.97
2018-04-26T21:13:15.752Z,7.90
2018-04-26T21:15:43.106Z,9.30
2018-04-26T21:18:09.638Z,6.03
2018-04-26T21:20:36.283Z,6.83
2018-04-26T21:23:03.009Z,6.67
2018-04-26T21:25:29.565Z,7.10
2018-04-26T21:27:56.045Z,6.93
2018-04-26T21:30:23.258Z,5.97
2018-04-26T21:32:49.876Z,7.27
2018-04-26T21:35:16.445Z,9.47
2018-04-26T21:37:43.613Z,8.20
2018-04-26T21:40:10.913Z,8.77
2018-04-26T21:42:37.431Z,6.47
2018-04-26T21:45:04.861Z,6.70
2018-04-26T21:47:32.150Z,8.87
2018-04-26T21:50:04.739Z,7.83
2018-04-26T21:52:37.896Z,7.13
2018-04-26T21:55:11.266Z,4.50
2018-04-26T21:57:43.744Z,6.83
2018-04-26T22:00:16.335Z,4.90
2018-04-26T22:02:44.403Z,7.13
2018-04-26T22:08:09.302Z,3.77
2018-04-26T22:10:35.927Z,6.43
2018-04-26T22:13:02.472Z,5.60
2018-04-26T22:15:28.998Z,8.37
2018-04-26T22:17:55.443Z,7.87
2018-04-26T22:20:21.963Z,6.37
2018-04-26T22:22:48.476Z,7.93
2018-04-26T22:25:15.862Z,5.23
2018-04-26T22:27:42.465Z,5.67
2018-04-26T22:30:08.989Z,8.30
2018-04-26T22:32:35.523Z,4.97
2018-04-26T22:35:02.685Z,7.37
2018-04-26T22:37:30.384Z,6.23
2018-04-26T22:39:57.666Z,8.20
2018-04-26T22:42:24.950Z,8.67
2018-04-26T22:44:51.527Z,8.17
2018-04-26T22:47:18.116Z,6.03
2018-04-26T22:52:18.097Z,8.47
2018-04-26T22:54:44.554Z,7.50
2018-04-26T22:57:12.668Z,7.73
2018-04-26T22:59:39.178Z,8.63
2018-04-26T23:02:06.444Z,7.17
2018-04-26T23:04:33.001Z,3.87
2018-04-26T23:06:59.536Z,7.90
2018-04-26T23:09:25.967Z,5.40
2018-04-26T23:11:52.602Z,7.43
2018-04-26T23:14:19.185Z,10.40
2018-04-26T23:16:45.750Z,5.90
2018-04-26T23:19:12.286Z,6.53
2018-04-26T23:21:40.642Z,5.63
2018-04-26T23:24:07.116Z,5.67
2018-04-26T23:26:33.665Z,5.07
2018-04-26T23:29:01.383Z,6.57
2018-04-26T23:31:29.305Z,5.87
2018-04-26T23:33:55.753Z,7.47
2018-04-26T23:36:22.329Z,7.67
2018-04-26T23:38:49.567Z,7.20
2018-04-26T23:41:16.133Z,6.43
2018-04-26T23:43:43.383Z,8.47
2018-04-26T23:46:10.937Z,7.00
2018-04-26T23:48:38.165Z,7.40
2018-04-26T23:51:04.840Z,5.03
2018-04-26T23:53:31.348Z,6.03
2018-04-26T23:55:57.842Z,4.47
2018-04-26T23:58:25.938Z,11.37
